International Virtual Aviation Organisation

Russian Federation and Kazakhstan MCD

 

Карточка аэропорта UWOO

Внимание!
Информация на этой странице в стадии наполнения.
Если вы не увидели какой-то информации, или заметили неточность - пожалуйста сообщите нам!
Спасибо!
Команда RU-STAFF
Название аэропортаОренбург
Название аэропорта (англ.)Orenburg
Превышение387 ft. (118 m.)
Координаты51°48', 55°27'
Высота перехода700m
Эшелон переходаBy ATC
Коды ответчика2440-2443
Зона ОрВДСамара РПИ (UWWW)
Данные METARUWOO 060830Z 02003MPS CAVOK M04/M07 Q1015 R26/890837 NOSIG RMK QFE750/1000
Проноз погоды (TAF)UWOO 060746Z 0609/0709 30003G08MPS 6000 BKN016 TXM02/0612Z TNM08/0704Z TEMPO 0614/0621 VRB01MPS 0500 -SN FZFG VV002 FM062100 01005G12MPS 2000 SN BR BKN005 TEMPO 0621/0709 34009G14MPS 0800 +SN BLSN VV003
NOTAMshow/hide NOTAM
AWOS   TABLE

Информация о ВПП

ВПП Длина ВПП (м.) Покрытие Курс ВПП Частота ILS
082501Асфальтобетон79109
262501Асфальтобетон259109.3

Диспетчерские позиции

Позывной Наименование органа УВД Частота
UWOO_TWRОренбург-Старт128.0
UWOO_R_APPОренбург - Круг120.400



Спутниковое изображение